sensor_id;sensor_type;location;lat;lon;timestamp;P1;durP1;ratioP1;P2;durP2;ratioP2
32329;SDS011;18807;52.434;13.238;2023-04-28T00:04:43;9.40;;;6.33;;
32329;SDS011;18807;52.434;13.238;2023-04-28T00:12:17;10.05;;;6.15;;
32329;SDS011;18807;52.434;13.238;2023-04-28T00:19:52;13.63;;;6.80;;
32329;SDS011;18807;52.434;13.238;2023-04-28T00:27:26;13.60;;;6.32;;
32329;SDS011;18807;52.434;13.238;2023-04-28T00:35:01;12.67;;;6.47;;
32329;SDS011;18807;52.434;13.238;2023-04-28T00:42:36;10.52;;;6.57;;
32329;SDS011;18807;52.434;13.238;2023-04-28T00:50:12;11.52;;;7.28;;
32329;SDS011;18807;52.434;13.238;2023-04-28T00:57:46;15.40;;;7.28;;
32329;SDS011;18807;52.434;13.238;2023-04-28T01:05:21;15.18;;;8.55;;
32329;SDS011;18807;52.434;13.238;2023-04-28T01:12:58;12.95;;;7.70;;
32329;SDS011;18807;52.434;13.238;2023-04-28T01:20:33;15.53;;;7.60;;
32329;SDS011;18807;52.434;13.238;2023-04-28T01:28:09;11.48;;;6.97;;
32329;SDS011;18807;52.434;13.238;2023-04-28T01:35:43;14.50;;;7.05;;
32329;SDS011;18807;52.434;13.238;2023-04-28T01:43:18;11.43;;;6.70;;
32329;SDS011;18807;52.434;13.238;2023-04-28T01:50:52;12.32;;;6.43;;
32329;SDS011;18807;52.434;13.238;2023-04-28T01:58:28;12.07;;;6.40;;
32329;SDS011;18807;52.434;13.238;2023-04-28T02:06:02;11.82;;;6.60;;
32329;SDS011;18807;52.434;13.238;2023-04-28T02:13:38;8.57;;;5.22;;
32329;SDS011;18807;52.434;13.238;2023-04-28T02:21:12;8.20;;;4.88;;
32329;SDS011;18807;52.434;13.238;2023-04-28T02:28:47;9.77;;;5.13;;
32329;SDS011;18807;52.434;13.238;2023-04-28T02:36:21;6.28;;;4.22;;
32329;SDS011;18807;52.434;13.238;2023-04-28T02:43:57;5.13;;;3.57;;
32329;SDS011;18807;52.434;13.238;2023-04-28T02:51:31;8.90;;;4.40;;
32329;SDS011;18807;52.434;13.238;2023-04-28T02:59:06;7.50;;;4.03;;
32329;SDS011;18807;52.434;13.238;2023-04-28T03:06:40;9.55;;;4.72;;
32329;SDS011;18807;52.434;13.238;2023-04-28T03:21:50;6.87;;;3.97;;
32329;SDS011;18807;52.434;13.238;2023-04-28T03:29:25;6.25;;;3.80;;
32329;SDS011;18807;52.434;13.238;2023-04-28T03:36:59;9.00;;;4.63;;
32329;SDS011;18807;52.434;13.238;2023-04-28T03:44:35;7.80;;;3.90;;
32329;SDS011;18807;52.434;13.238;2023-04-28T03:52:08;5.88;;;4.05;;
32329;SDS011;18807;52.434;13.238;2023-04-28T03:59:44;6.97;;;4.20;;
32329;SDS011;18807;52.434;13.238;2023-04-28T04:07:18;9.02;;;4.32;;
32329;SDS011;18807;52.434;13.238;2023-04-28T04:14:53;7.90;;;4.17;;
32329;SDS011;18807;52.434;13.238;2023-04-28T04:22:27;11.23;;;4.10;;
32329;SDS011;18807;52.434;13.238;2023-04-28T04:30:03;9.40;;;4.60;;
32329;SDS011;18807;52.434;13.238;2023-04-28T04:37:38;10.48;;;5.47;;
32329;SDS011;18807;52.434;13.238;2023-04-28T04:45:15;6.47;;;3.40;;
32329;SDS011;18807;52.434;13.238;2023-04-28T04:52:49;6.47;;;4.00;;
32329;SDS011;18807;52.434;13.238;2023-04-28T05:00:42;10.15;;;4.65;;
32329;SDS011;18807;52.434;13.238;2023-04-28T05:08:34;8.88;;;4.18;;
32329;SDS011;18807;52.434;13.238;2023-04-28T05:16:09;6.57;;;4.43;;
32329;SDS011;18807;52.434;13.238;2023-04-28T05:23:43;9.38;;;4.75;;
32329;SDS011;18807;52.434;13.238;2023-04-28T05:31:19;7.63;;;4.30;;
32329;SDS011;18807;52.434;13.238;2023-04-28T05:38:53;10.02;;;4.30;;
32329;SDS011;18807;52.434;13.238;2023-04-28T05:46:31;13.02;;;5.95;;
32329;SDS011;18807;52.434;13.238;2023-04-28T05:54:05;6.60;;;4.30;;
32329;SDS011;18807;52.434;13.238;2023-04-28T06:01:41;11.67;;;4.27;;
32329;SDS011;18807;52.434;13.238;2023-04-28T06:09:15;9.20;;;4.28;;
32329;SDS011;18807;52.434;13.238;2023-04-28T06:16:51;8.75;;;3.88;;
32329;SDS011;18807;52.434;13.238;2023-04-28T06:24:25;7.07;;;3.92;;
32329;SDS011;18807;52.434;13.238;2023-04-28T06:32:00;8.20;;;4.25;;
32329;SDS011;18807;52.434;13.238;2023-04-28T06:39:34;7.53;;;4.25;;
32329;SDS011;18807;52.434;13.238;2023-04-28T06:47:11;10.55;;;4.63;;
32329;SDS011;18807;52.434;13.238;2023-04-28T06:54:49;8.07;;;3.63;;
32329;SDS011;18807;52.434;13.238;2023-04-28T07:02:24;7.53;;;3.93;;
32329;SDS011;18807;52.434;13.238;2023-04-28T07:09:58;9.90;;;5.15;;
32329;SDS011;18807;52.434;13.238;2023-04-28T07:17:34;11.05;;;4.55;;
32329;SDS011;18807;52.434;13.238;2023-04-28T07:25:08;8.90;;;3.97;;
32329;SDS011;18807;52.434;13.238;2023-04-28T07:32:44;10.55;;;4.55;;
32329;SDS011;18807;52.434;13.238;2023-04-28T07:40:19;7.50;;;4.07;;
32329;SDS011;18807;52.434;13.238;2023-04-28T07:47:54;6.10;;;3.93;;
32329;SDS011;18807;52.434;13.238;2023-04-28T07:55:28;8.25;;;4.22;;
32329;SDS011;18807;52.434;13.238;2023-04-28T08:03:04;9.97;;;5.33;;
32329;SDS011;18807;52.434;13.238;2023-04-28T08:10:38;7.45;;;4.78;;
32329;SDS011;18807;52.434;13.238;2023-04-28T08:18:15;7.57;;;3.88;;
32329;SDS011;18807;52.434;13.238;2023-04-28T08:25:49;12.85;;;4.07;;
32329;SDS011;18807;52.434;13.238;2023-04-28T08:33:42;10.02;;;4.05;;
32329;SDS011;18807;52.434;13.238;2023-04-28T08:41:19;6.47;;;3.63;;
32329;SDS011;18807;52.434;13.238;2023-04-28T08:48:58;10.32;;;4.53;;
32329;SDS011;18807;52.434;13.238;2023-04-28T08:56:33;7.22;;;4.60;;
32329;SDS011;18807;52.434;13.238;2023-04-28T09:04:09;11.60;;;4.80;;
32329;SDS011;18807;52.434;13.238;2023-04-28T09:11:55;10.18;;;4.60;;
32329;SDS011;18807;52.434;13.238;2023-04-28T09:19:36;11.10;;;4.80;;
32329;SDS011;18807;52.434;13.238;2023-04-28T09:27:10;9.38;;;5.30;;
32329;SDS011;18807;52.434;13.238;2023-04-28T09:34:48;7.40;;;4.80;;
32329;SDS011;18807;52.434;13.238;2023-04-28T09:42:29;7.75;;;4.93;;
32329;SDS011;18807;52.434;13.238;2023-04-28T09:50:07;10.43;;;4.70;;
32329;SDS011;18807;52.434;13.238;2023-04-28T09:57:45;6.68;;;4.80;;
32329;SDS011;18807;52.434;13.238;2023-04-28T10:05:24;8.80;;;4.85;;
32329;SDS011;18807;52.434;13.238;2023-04-28T10:12:59;9.70;;;4.57;;
32329;SDS011;18807;52.434;13.238;2023-04-28T10:20:35;8.68;;;4.88;;
32329;SDS011;18807;52.434;13.238;2023-04-28T10:28:10;8.10;;;4.55;;
32329;SDS011;18807;52.434;13.238;2023-04-28T10:35:46;8.93;;;5.15;;
32329;SDS011;18807;52.434;13.238;2023-04-28T10:43:33;12.45;;;5.28;;
32329;SDS011;18807;52.434;13.238;2023-04-28T11:07:10;8.98;;;5.60;;
32329;SDS011;18807;52.434;13.238;2023-04-28T11:14:46;9.40;;;5.90;;
32329;SDS011;18807;52.434;13.238;2023-04-28T11:22:21;13.13;;;5.32;;
32329;SDS011;18807;52.434;13.238;2023-04-28T11:29:55;7.40;;;5.20;;
32329;SDS011;18807;52.434;13.238;2023-04-28T11:37:31;11.60;;;5.72;;
32329;SDS011;18807;52.434;13.238;2023-04-28T11:45:05;11.30;;;5.72;;
32329;SDS011;18807;52.434;13.238;2023-04-28T11:52:49;11.93;;;6.03;;
32329;SDS011;18807;52.434;13.238;2023-04-28T12:00:25;9.55;;;5.82;;
32329;SDS011;18807;52.434;13.238;2023-04-28T12:08:02;10.63;;;5.95;;
32329;SDS011;18807;52.434;13.238;2023-04-28T12:15:40;7.97;;;5.47;;
32329;SDS011;18807;52.434;13.238;2023-04-28T12:23:15;10.60;;;5.15;;
32329;SDS011;18807;52.434;13.238;2023-04-28T12:31:02;12.43;;;6.07;;
32329;SDS011;18807;52.434;13.238;2023-04-28T12:38:39;9.45;;;5.50;;
32329;SDS011;18807;52.434;13.238;2023-04-28T12:46:20;7.60;;;4.45;;
32329;SDS011;18807;52.434;13.238;2023-04-28T12:53:55;7.07;;;3.80;;
32329;SDS011;18807;52.434;13.238;2023-04-28T13:01:29;11.05;;;4.97;;
32329;SDS011;18807;52.434;13.238;2023-04-28T13:09:05;9.23;;;5.53;;
32329;SDS011;18807;52.434;13.238;2023-04-28T13:16:38;9.05;;;5.03;;
32329;SDS011;18807;52.434;13.238;2023-04-28T13:24:14;11.00;;;5.95;;
32329;SDS011;18807;52.434;13.238;2023-04-28T13:31:49;9.95;;;5.30;;
32329;SDS011;18807;52.434;13.238;2023-04-28T13:39:25;5.35;;;4.30;;
32329;SDS011;18807;52.434;13.238;2023-04-28T13:46:59;9.32;;;6.32;;
32329;SDS011;18807;52.434;13.238;2023-04-28T13:54:35;10.33;;;5.80;;
32329;SDS011;18807;52.434;13.238;2023-04-28T14:02:09;10.20;;;6.00;;
32329;SDS011;18807;52.434;13.238;2023-04-28T14:09:44;9.43;;;5.70;;
32329;SDS011;18807;52.434;13.238;2023-04-28T14:17:19;8.18;;;5.22;;
32329;SDS011;18807;52.434;13.238;2023-04-28T14:24:54;7.25;;;4.68;;
32329;SDS011;18807;52.434;13.238;2023-04-28T14:32:28;10.15;;;5.88;;
32329;SDS011;18807;52.434;13.238;2023-04-28T14:40:04;8.77;;;5.70;;
32329;SDS011;18807;52.434;13.238;2023-04-28T14:47:39;10.35;;;6.32;;
32329;SDS011;18807;52.434;13.238;2023-04-28T14:55:15;8.00;;;5.18;;
32329;SDS011;18807;52.434;13.238;2023-04-28T15:02:49;8.23;;;5.32;;
32329;SDS011;18807;52.434;13.238;2023-04-28T15:10:25;10.77;;;5.80;;
32329;SDS011;18807;52.434;13.238;2023-04-28T15:18:09;6.40;;;4.95;;
32329;SDS011;18807;52.434;13.238;2023-04-28T15:25:44;11.77;;;6.50;;
32329;SDS011;18807;52.434;13.238;2023-04-28T15:33:21;10.60;;;5.40;;
32329;SDS011;18807;52.434;13.238;2023-04-28T15:40:56;7.30;;;5.30;;
32329;SDS011;18807;52.434;13.238;2023-04-28T15:48:30;7.68;;;5.20;;
32329;SDS011;18807;52.434;13.238;2023-04-28T15:56:06;7.18;;;5.75;;
32329;SDS011;18807;52.434;13.238;2023-04-28T16:03:42;9.00;;;6.05;;
32329;SDS011;18807;52.434;13.238;2023-04-28T16:11:20;12.55;;;8.15;;
32329;SDS011;18807;52.434;13.238;2023-04-28T16:18:55;14.43;;;7.70;;
32329;SDS011;18807;52.434;13.238;2023-04-28T16:26:31;9.73;;;6.10;;
32329;SDS011;18807;52.434;13.238;2023-04-28T16:34:05;9.77;;;8.02;;
32329;SDS011;18807;52.434;13.238;2023-04-28T16:41:40;8.32;;;6.07;;
32329;SDS011;18807;52.434;13.238;2023-04-28T16:56:49;9.80;;;7.50;;
32329;SDS011;18807;52.434;13.238;2023-04-28T17:04:23;10.85;;;6.80;;
32329;SDS011;18807;52.434;13.238;2023-04-28T17:12:00;10.23;;;7.18;;
32329;SDS011;18807;52.434;13.238;2023-04-28T17:19:35;13.10;;;7.35;;
32329;SDS011;18807;52.434;13.238;2023-04-28T17:27:10;10.35;;;8.15;;
32329;SDS011;18807;52.434;13.238;2023-04-28T17:34:45;11.57;;;8.68;;
32329;SDS011;18807;52.434;13.238;2023-04-28T17:42:21;12.03;;;9.07;;
32329;SDS011;18807;52.434;13.238;2023-04-28T17:49:55;11.07;;;7.55;;
32329;SDS011;18807;52.434;13.238;2023-04-28T17:57:30;11.70;;;8.35;;
32329;SDS011;18807;52.434;13.238;2023-04-28T18:05:04;12.23;;;9.23;;
32329;SDS011;18807;52.434;13.238;2023-04-28T18:12:42;12.05;;;8.18;;
32329;SDS011;18807;52.434;13.238;2023-04-28T18:20:16;12.68;;;9.07;;
32329;SDS011;18807;52.434;13.238;2023-04-28T18:27:51;10.50;;;8.60;;
32329;SDS011;18807;52.434;13.238;2023-04-28T18:35:26;11.13;;;7.53;;
32329;SDS011;18807;52.434;13.238;2023-04-28T18:43:01;9.73;;;7.53;;
32329;SDS011;18807;52.434;13.238;2023-04-28T18:50:35;8.10;;;5.65;;
32329;SDS011;18807;52.434;13.238;2023-04-28T18:58:15;8.00;;;5.68;;
32329;SDS011;18807;52.434;13.238;2023-04-28T19:05:48;11.52;;;5.88;;
32329;SDS011;18807;52.434;13.238;2023-04-28T19:13:24;9.18;;;6.03;;
32329;SDS011;18807;52.434;13.238;2023-04-28T19:20:58;13.15;;;7.03;;
32329;SDS011;18807;52.434;13.238;2023-04-28T19:28:35;9.38;;;7.05;;
32329;SDS011;18807;52.434;13.238;2023-04-28T19:36:09;9.50;;;6.43;;
32329;SDS011;18807;52.434;13.238;2023-04-28T19:43:45;11.37;;;7.27;;
32329;SDS011;18807;52.434;13.238;2023-04-28T19:51:19;10.88;;;8.35;;
32329;SDS011;18807;52.434;13.238;2023-04-28T19:59:13;11.20;;;8.13;;
32329;SDS011;18807;52.434;13.238;2023-04-28T20:06:47;11.75;;;7.03;;
32329;SDS011;18807;52.434;13.238;2023-04-28T20:14:22;14.48;;;9.00;;
32329;SDS011;18807;52.434;13.238;2023-04-28T20:21:57;11.65;;;7.82;;
32329;SDS011;18807;52.434;13.238;2023-04-28T20:29:32;9.52;;;7.15;;
32329;SDS011;18807;52.434;13.238;2023-04-28T20:37:07;8.60;;;6.30;;
32329;SDS011;18807;52.434;13.238;2023-04-28T20:44:43;7.78;;;6.45;;
32329;SDS011;18807;52.434;13.238;2023-04-28T20:52:18;6.72;;;5.90;;
32329;SDS011;18807;52.434;13.238;2023-04-28T20:59:54;7.65;;;6.20;;
32329;SDS011;18807;52.434;13.238;2023-04-28T21:07:28;9.45;;;7.22;;
32329;SDS011;18807;52.434;13.238;2023-04-28T21:15:05;17.55;;;8.88;;
32329;SDS011;18807;52.434;13.238;2023-04-28T21:22:40;9.32;;;6.25;;
32329;SDS011;18807;52.434;13.238;2023-04-28T21:30:15;8.60;;;7.03;;
32329;SDS011;18807;52.434;13.238;2023-04-28T21:37:50;11.60;;;8.73;;
32329;SDS011;18807;52.434;13.238;2023-04-28T21:45:26;11.55;;;8.18;;
32329;SDS011;18807;52.434;13.238;2023-04-28T21:53:00;12.10;;;9.25;;
32329;SDS011;18807;52.434;13.238;2023-04-28T22:00:37;14.97;;;9.60;;
32329;SDS011;18807;52.434;13.238;2023-04-28T22:08:12;9.20;;;7.68;;
32329;SDS011;18807;52.434;13.238;2023-04-28T22:15:49;10.40;;;7.88;;
32329;SDS011;18807;52.434;13.238;2023-04-28T22:23:24;9.50;;;7.95;;
32329;SDS011;18807;52.434;13.238;2023-04-28T22:30:59;9.68;;;8.35;;
32329;SDS011;18807;52.434;13.238;2023-04-28T22:38:34;11.13;;;7.20;;
32329;SDS011;18807;52.434;13.238;2023-04-28T22:46:09;9.23;;;7.20;;
32329;SDS011;18807;52.434;13.238;2023-04-28T22:53:43;11.32;;;7.13;;
32329;SDS011;18807;52.434;13.238;2023-04-28T23:01:19;9.40;;;6.53;;
32329;SDS011;18807;52.434;13.238;2023-04-28T23:08:53;8.18;;;6.45;;
32329;SDS011;18807;52.434;13.238;2023-04-28T23:16:28;9.80;;;6.35;;
32329;SDS011;18807;52.434;13.238;2023-04-28T23:24:03;8.40;;;6.97;;
32329;SDS011;18807;52.434;13.238;2023-04-28T23:31:40;9.73;;;6.22;;
32329;SDS011;18807;52.434;13.238;2023-04-28T23:39:31;7.30;;;6.40;;
32329;SDS011;18807;52.434;13.238;2023-04-28T23:47:06;12.43;;;8.02;;
32329;SDS011;18807;52.434;13.238;2023-04-28T23:54:40;7.65;;;6.68;;
